createdAt,value
2022-12-26T00:01:01.734Z,97991.22
2022-12-26T00:06:04.939Z,97992.28
2022-12-26T00:11:07.426Z,97980.13
2022-12-26T00:16:20.386Z,97982.84
2022-12-26T00:21:25.701Z,97997.84
2022-12-26T00:26:31.291Z,97993.25
2022-12-26T00:31:35.265Z,98001.72
2022-12-26T00:36:37.387Z,98005.34
2022-12-26T00:41:39.601Z,98013.53
2022-12-26T00:46:44.226Z,98010.63
2022-12-26T00:51:46.278Z,97999.91
2022-12-26T00:56:48.350Z,98000.19
2022-12-26T01:01:50.755Z,97999.69
2022-12-26T01:06:53.039Z,98006.34
2022-12-26T01:11:55.041Z,97989.44
2022-12-26T01:16:57.075Z,97990.38
2022-12-26T01:21:59.233Z,97996.66
2022-12-26T01:27:01.491Z,98003.28
2022-12-26T01:32:04.481Z,97996.81
2022-12-26T01:37:07.663Z,98002.16
2022-12-26T01:42:18.708Z,98010.00
2022-12-26T01:47:24.222Z,97997.66
2022-12-26T01:52:38.675Z,98008.53
2022-12-26T01:57:47.575Z,98000.13
2022-12-26T02:03:08.832Z,98008.34
2022-12-26T02:08:23.131Z,97990.66
2022-12-26T02:13:27.431Z,98005.78
2022-12-26T02:18:29.433Z,97982.84
2022-12-26T02:24:00.254Z,97991.34
2022-12-26T02:29:37.047Z,97985.06
2022-12-26T02:35:10.673Z,98004.78
2022-12-26T02:40:36.749Z,98007.41
2022-12-26T02:46:30.625Z,98009.06
2022-12-26T02:52:21.662Z,97998.28
2022-12-26T02:57:54.821Z,97999.56
2022-12-26T03:03:35.562Z,98006.69
2022-12-26T03:09:02.153Z,98007.03
2022-12-26T03:14:23.511Z,98002.16
2022-12-26T03:19:31.431Z,98005.59
2022-12-26T03:24:53.935Z,97995.78
2022-12-26T03:30:14.537Z,97982.50
2022-12-26T03:35:17.680Z,97975.56
2022-12-26T03:40:55.889Z,97981.31
2022-12-26T03:46:41.499Z,97984.47
2022-12-26T03:52:14.718Z,97983.72
2022-12-26T03:57:41.017Z,97987.97
2022-12-26T04:03:05.837Z,97984.72
2022-12-26T04:08:39.113Z,97984.72
2022-12-26T04:14:25.373Z,97991.03
2022-12-26T04:19:58.932Z,98004.94
2022-12-26T04:25:49.377Z,98002.22
2022-12-26T04:31:25.011Z,98004.94
2022-12-26T04:36:55.128Z,98006.84
2022-12-26T04:42:18.453Z,98000.31
2022-12-26T04:47:21.270Z,98004.53
2022-12-26T04:52:23.631Z,97991.78
2022-12-26T04:57:25.576Z,97993.41
2022-12-26T05:02:46.152Z,98002.06
2022-12-26T05:08:06.897Z,98020.81
2022-12-26T05:13:08.894Z,98008.47
2022-12-26T05:18:29.540Z,98013.66
2022-12-26T05:23:50.190Z,97998.63
2022-12-26T05:28:59.467Z,98006.34
2022-12-26T05:34:27.745Z,98014.84
2022-12-26T05:39:29.703Z,98013.16
2022-12-26T05:44:31.691Z,98027.09
2022-12-26T05:49:33.820Z,98015.38
2022-12-26T05:54:35.884Z,98020.28
2022-12-26T05:59:38.008Z,98025.97
2022-12-26T06:04:40.036Z,98021.28
2022-12-26T06:09:43.616Z,98025.91
2022-12-26T06:14:45.654Z,98013.38
2022-12-26T06:19:47.603Z,98017.19
2022-12-26T06:24:49.689Z,98013.13
2022-12-26T06:29:51.751Z,98009.22
2022-12-26T06:34:53.730Z,98011.50
2022-12-26T06:39:55.711Z,98005.81
2022-12-26T06:44:58.246Z,98003.44
2022-12-26T06:50:00.294Z,98023.50
2022-12-26T06:55:02.365Z,98013.38
2022-12-26T07:00:05.021Z,98012.50
2022-12-26T07:05:07.471Z,98020.94
2022-12-26T07:10:12.362Z,98024.75
2022-12-26T07:15:15.714Z,98029.44
2022-12-26T07:20:17.765Z,98032.59
2022-12-26T07:25:19.808Z,98027.94
2022-12-26T07:30:21.900Z,98035.09
2022-12-26T07:35:23.931Z,98029.97
2022-12-26T07:40:26.153Z,98031.66
2022-12-26T07:45:28.323Z,98042.31
2022-12-26T07:50:31.481Z,98030.66
2022-12-26T07:55:33.479Z,98028.38
2022-12-26T08:00:35.647Z,98056.00
2022-12-26T08:05:37.629Z,98048.69
2022-12-26T08:10:39.682Z,98040.72
2022-12-26T08:15:41.844Z,98034.91
2022-12-26T08:20:44.334Z,98041.22
2022-12-26T08:25:46.545Z,98045.81
2022-12-26T08:30:50.183Z,98054.31
2022-12-26T08:35:52.231Z,98077.97
2022-12-26T08:40:56.362Z,98077.28
2022-12-26T08:46:19.766Z,98093.63
2022-12-26T08:51:25.116Z,98099.06
2022-12-26T08:56:28.849Z,98120.91
2022-12-26T09:01:32.258Z,98130.88
2022-12-26T09:06:38.515Z,98148.06
2022-12-26T09:11:43.351Z,98152.31
2022-12-26T09:16:50.889Z,98165.19
2022-12-26T09:22:13.523Z,98160.91
2022-12-26T09:27:15.971Z,98145.50
2022-12-26T09:32:17.967Z,98160.84
2022-12-26T09:37:20.145Z,98149.97
2022-12-26T09:43:16.053Z,98176.84
2022-12-26T09:48:38.023Z,98179.00
2022-12-26T09:53:47.655Z,98195.31
2022-12-26T09:59:01.357Z,98223.94
2022-12-26T10:04:21.255Z,98224.56
2022-12-26T10:09:42.731Z,98240.53
2022-12-26T10:15:11.847Z,98229.84
2022-12-26T10:20:43.992Z,98232.81
2022-12-26T10:25:56.446Z,98235.63
2022-12-26T10:31:05.587Z,98226.19
2022-12-26T10:36:23.406Z,98237.19
2022-12-26T10:41:45.202Z,98250.66
2022-12-26T10:47:32.804Z,98232.22
2022-12-26T10:52:56.142Z,98247.47
2022-12-26T10:58:12.236Z,98229.09
2022-12-26T11:03:18.168Z,98246.88
2022-12-26T11:08:51.825Z,98250.72
2022-12-26T11:14:03.047Z,98214.97
2022-12-26T11:19:06.372Z,98216.50
2022-12-26T11:24:08.346Z,98193.28
2022-12-26T11:29:15.223Z,98183.38
2022-12-26T11:34:35.693Z,98193.78
2022-12-26T11:39:38.762Z,98220.69
2022-12-26T11:44:52.375Z,98224.19
2022-12-26T11:50:17.779Z,98217.06
2022-12-26T11:55:29.200Z,98186.69
2022-12-26T12:00:31.558Z,98207.44
2022-12-26T12:05:42.893Z,98177.72
2022-12-26T12:11:38.867Z,98196.06
2022-12-26T12:17:00.439Z,98186.63
2022-12-26T12:22:19.022Z,98209.94
2022-12-26T12:27:47.827Z,98206.84
2022-12-26T12:33:34.677Z,98187.47
2022-12-26T12:39:06.883Z,98199.19
2022-12-26T12:44:30.309Z,98187.72
2022-12-26T12:49:44.252Z,98189.88
2022-12-26T12:55:01.381Z,98195.28
2022-12-26T13:00:24.107Z,98193.38
2022-12-26T13:06:14.338Z,98191.31
2022-12-26T13:11:31.942Z,98186.72
2022-12-26T13:16:43.921Z,98191.97
2022-12-26T13:21:50.246Z,98181.75
2022-12-26T13:27:16.414Z,98159.63
2022-12-26T13:32:21.830Z,98160.63
2022-12-26T13:37:38.737Z,98146.78
2022-12-26T13:43:14.542Z,98151.13
2022-12-26T13:48:16.618Z,98157.59
2022-12-26T13:53:24.639Z,98159.97
2022-12-26T13:58:32.895Z,98175.09
2022-12-26T14:03:44.145Z,98168.66
2022-12-26T14:09:03.362Z,98164.06
2022-12-26T14:14:48.210Z,98156.78
2022-12-26T14:19:55.427Z,98160.06
2022-12-26T14:25:19.372Z,98166.34
2022-12-26T14:30:59.787Z,98157.84
2022-12-26T14:36:20.262Z,98137.69
2022-12-26T14:41:41.821Z,98159.38
2022-12-26T14:46:44.102Z,98160.81
2022-12-26T14:51:46.522Z,98150.22
2022-12-26T14:56:50.789Z,98137.84
2022-12-26T15:02:22.255Z,98138.28
2022-12-26T15:08:00.960Z,98145.28
2022-12-26T15:13:40.182Z,98138.59
2022-12-26T15:19:28.108Z,98113.53
2022-12-26T15:25:19.262Z,98130.66
2022-12-26T15:30:27.370Z,98133.16
2022-12-26T15:35:35.087Z,98158.00
2022-12-26T15:40:45.788Z,98147.41
2022-12-26T15:45:57.358Z,98158.97
2022-12-26T15:51:05.135Z,98147.78
2022-12-26T15:56:34.368Z,98140.78
2022-12-26T16:01:43.381Z,98150.53
2022-12-26T16:07:39.203Z,98129.78
2022-12-26T16:12:43.972Z,98154.28
2022-12-26T16:17:46.696Z,98152.59
2022-12-26T16:22:51.067Z,98156.44
2022-12-26T16:27:57.338Z,98155.50
2022-12-26T16:33:00.421Z,98181.13
2022-12-26T16:38:08.045Z,98178.41
2022-12-26T16:43:19.463Z,98185.81
2022-12-26T16:48:25.846Z,98178.84
2022-12-26T16:53:39.460Z,98177.59
2022-12-26T16:58:41.827Z,98181.94
2022-12-26T17:03:55.386Z,98171.72
2022-12-26T17:09:07.169Z,98178.78
2022-12-26T17:14:24.883Z,98171.81
2022-12-26T17:19:33.530Z,98177.09
2022-12-26T17:24:35.577Z,98195.16
2022-12-26T17:29:58.744Z,98210.81
2022-12-26T17:35:26.009Z,98212.41
2022-12-26T17:40:34.675Z,98201.38
2022-12-26T17:45:41.409Z,98216.38
2022-12-26T17:50:55.219Z,98231.34
2022-12-26T17:56:15.181Z,98249.22
2022-12-26T18:01:21.293Z,98280.06
2022-12-26T18:06:24.366Z,98266.84
2022-12-26T18:11:26.446Z,98269.81
2022-12-26T18:16:29.702Z,98277.22
2022-12-26T18:21:31.725Z,98277.34
2022-12-26T18:26:33.773Z,98307.66
2022-12-26T18:31:35.978Z,98304.50
2022-12-26T18:36:41.203Z,98326.38
2022-12-26T18:41:43.864Z,98325.16
2022-12-26T18:46:47.314Z,98305.28
2022-12-26T18:51:49.330Z,98339.78
2022-12-26T18:56:51.320Z,98340.97
2022-12-26T19:01:53.400Z,98353.50
2022-12-26T19:06:55.539Z,98342.66
2022-12-26T19:11:58.924Z,98352.78
2022-12-26T19:17:00.890Z,98355.84
2022-12-26T19:22:03.851Z,98373.66
2022-12-26T19:27:05.877Z,98374.34
2022-12-26T19:32:07.980Z,98380.88
2022-12-26T19:37:10.086Z,98392.47
2022-12-26T19:42:12.119Z,98402.72
2022-12-26T19:47:14.839Z,98421.19
2022-12-26T19:52:17.047Z,98434.59
2022-12-26T19:57:19.249Z,98455.75
2022-12-26T20:02:21.387Z,98470.50
2022-12-26T20:07:23.663Z,98485.22
2022-12-26T20:12:25.742Z,98497.13
2022-12-26T20:17:27.883Z,98508.00
2022-12-26T20:22:29.963Z,98505.78
2022-12-26T20:27:32.825Z,98519.44
2022-12-26T20:32:34.991Z,98530.56
2022-12-26T20:37:37.038Z,98549.38
2022-12-26T20:42:39.072Z,98565.03
2022-12-26T20:47:41.155Z,98578.16
2022-12-26T20:52:43.431Z,98575.50
2022-12-26T20:57:46.009Z,98591.53
2022-12-26T21:02:48.144Z,98607.84
2022-12-26T21:07:50.232Z,98610.16
2022-12-26T21:12:52.238Z,98628.72
2022-12-26T21:17:54.237Z,98638.00
2022-12-26T21:22:56.849Z,98651.25
2022-12-26T21:27:59.470Z,98655.25
2022-12-26T21:33:01.776Z,98653.72
2022-12-26T21:38:03.895Z,98652.97
2022-12-26T21:43:06.023Z,98661.50
2022-12-26T21:48:08.553Z,98673.47
2022-12-26T21:53:10.841Z,98680.91
2022-12-26T21:58:13.053Z,98680.47
2022-12-26T22:03:33.867Z,98678.47
2022-12-26T22:08:38.178Z,98690.50
2022-12-26T22:13:42.974Z,98702.78
2022-12-26T22:18:47.396Z,98699.47
2022-12-26T22:23:50.930Z,98728.56
2022-12-26T22:28:53.091Z,98733.94
2022-12-26T22:34:01.026Z,98731.25
2022-12-26T22:39:03.683Z,98756.81
2022-12-26T22:44:05.773Z,98761.47
2022-12-26T22:49:11.146Z,98762.22
2022-12-26T22:54:13.340Z,98772.28
2022-12-26T22:59:33.799Z,98786.97
2022-12-26T23:04:38.552Z,98793.88
2022-12-26T23:09:40.814Z,98797.84
2022-12-26T23:14:43.057Z,98815.59
2022-12-26T23:20:10.511Z,98815.63
2022-12-26T23:25:12.609Z,98825.72
2022-12-26T23:30:18.066Z,98821.06
2022-12-26T23:35:22.527Z,98831.06
2022-12-26T23:40:24.794Z,98835.72
2022-12-26T23:45:26.873Z,98843.38
2022-12-26T23:50:29.004Z,98857.25
2022-12-26T23:55:31.375Z,98849.56
